Stone Cabin, Nevada Weather observations

Data are for observation ending at time listed.
 Day   Time    Ave.   Ave.  Ave.  Vector   Max.   Stn.    Total    Solar   Ave.  
  of    of     Air    Rel.  Wind   Wind    Wind   Baro.  Precip.   Rad.    Soil  
Year   Day     Temp.  Hum.  Speed  Dir.    Gust   Pres.                    Temp. 
2014   (PST)    F      %     mph   deg.    mph     mb.     in.     W/m2     F   
------------------------------------------------------------------------------
 234    9:00   70.1    40    5.2   190     14.5    819     0.00     632    64.2
 234   10:00   72.8    37    5.6   178     13.3    816     0.00     792    66.1
 234   11:00   75.5    32    6.9   195     16.5    815     0.00     906    69.1
 234   12:00   77.9    28    6.7   185     16.4    816     0.00     944    72.4
 234   13:00   79.2    26    7.0   186     17.5    816     0.00     851    73.9
 234   14:00   80.0    25    8.0   190     22.4    815     0.00     679    73.2
 234   15:00   80.1    24    8.3   194     21.8    813     0.00     483    73.2
 234   16:00   79.4    25    8.2   194     18.2    814     0.00     334    72.5
 234   17:00   79.2    24    9.6   174     23.3    814     0.00     235    71.7
 234   18:00   77.3    26    9.3   182     23.1    813     0.00      53    70.8
 234   19:00   75.5    27    7.9   195     16.5    814     0.00       8    70.1
 234   20:00   73.5    24    6.3   222     12.2    814     0.00       0    69.4
 234   21:00   69.4    20    4.0   285      8.6    815     0.00       0    68.7
 234   22:00   67.6    20    4.0   268      8.3    815     0.00       0    67.9
 234   23:00   64.4    23    3.2   274      7.2    816     0.00       0    67.1
 235    0:00   57.9    32    1.2   325      5.4    817     0.00       0    66.2
 235    1:00   54.1    39    1.1    73      3.7    817     0.00       0    65.3
 235    2:00   52.2    44    0.3   318      2.7    818     0.00       0    64.5
 235    3:00   49.5    49    0.3   338      2.2    819     0.00       0    63.8
 235    4:00   46.1    55    0.9   320      3.4    812     0.00       0    63.0
 235    5:00   45.7    59    0.6   300      2.8    820     0.00       0    62.3
 235    6:00   45.8    64    1.4   286      4.3    818     0.00      12    61.6
 235    7:00   52.5    54    1.3   286      3.7    816     0.00     108    61.2
 235    8:00   64.9    35    1.7    22      6.4    816     0.00     441    61.6

Return to Stone Cabin, Nevada graphs page.


Western Regional Climate Center,wrcc@dri.edu